Time;durP1;ratioP1;P1;durP2;ratioP2;P2;SDS_P1;SDS_P2;PMS_P1;PMS_P2;Temp;Humidity;BMP_temperature;BMP_pressure;BME280_temperature;BME280_humidity;BME280_pressure;Samples;Min_cycle;Max_cycle;Signal;HPM_P1;HPM_P2
2022/03/26 00:02:00;;;;;;;15.00;6.70;;;;;1.06;98481.80;;;;111099;1249;41157;-64
2022/03/26 00:04:32;;;;;;;15.60;6.30;;;;;1.00;98487.40;;;;110951;1250;42103;-64
2022/03/26 00:07:01;;;;;;;;;;;;;0.90;98486.20;;;;111017;1250;41139;-64
2022/03/26 00:09:31;;;;;;;16.70;7.50;;;;;0.90;98490.80;;;;110890;1250;41143;-65
2022/03/26 00:12:00;;;;;;;11.90;6.10;;;;;0.80;98487.20;;;;110818;1250;41178;-65
2022/03/26 00:14:30;;;;;;;14.10;6.40;;;;;0.78;98485.60;;;;110854;1249;41369;-65
2022/03/26 00:17:00;;;;;;;13.80;6.60;;;;;0.70;98481.40;;;;111069;1248;41585;-63
2022/03/26 00:19:30;;;;;;;13.20;5.70;;;;;0.70;98486.00;;;;110802;1250;41660;-64
2022/03/26 00:21:59;;;;;;;11.10;5.00;;;;;0.70;98482.40;;;;111177;1247;42369;-65
2022/03/26 00:24:29;;;;;;;14.20;5.70;;;;;0.70;98486.40;;;;111035;1248;41147;-63
2022/03/26 00:26:59;;;;;;;14.00;6.50;;;;;0.64;98481.60;;;;111037;1247;41200;-64
2022/03/26 00:29:29;;;;;;;12.30;6.20;;;;;0.62;98480.40;;;;110831;1249;41705;-64
2022/03/26 00:32:00;;;;;;;13.40;6.30;;;;;0.64;98480.00;;;;111083;1248;41323;-64
2022/03/26 00:34:32;;;;;;;13.50;6.10;;;;;0.60;98474.60;;;;111022;1248;41140;-64
2022/03/26 00:37:01;;;;;;;;;;;;;0.60;98481.40;;;;111035;1249;41712;-63
2022/03/26 00:39:31;;;;;;;14.80;6.90;;;;;0.60;98481.60;;;;111084;1249;41761;-65
2022/03/26 00:42:01;;;;;;;15.50;7.50;;;;;0.58;98479.80;;;;111047;1248;41610;-67
2022/03/26 00:44:31;;;;;;;15.30;7.00;;;;;0.56;98481.60;;;;111136;1247;41245;-64
2022/03/26 00:47:00;;;;;;;18.90;8.10;;;;;0.58;98487.60;;;;111088;1248;42200;-64
2022/03/26 00:49:30;;;;;;;20.20;9.80;;;;;0.52;98487.40;;;;111070;1248;41793;-64
2022/03/26 00:52:00;;;;;;;22.10;10.60;;;;;0.50;98486.80;;;;110866;1250;41146;-64
2022/03/26 00:54:30;;;;;;;23.60;10.70;;;;;0.46;98484.80;;;;111096;1247;41132;-63
2022/03/26 00:57:00;;;;;;;21.30;10.20;;;;;0.40;98495.00;;;;111223;1244;41191;-61
2022/03/26 00:59:30;;;;;;;20.00;9.80;;;;;0.30;98488.20;;;;111133;1248;42127;-63
2022/03/26 01:02:00;;;;;;;18.80;8.80;;;;;0.30;98496.00;;;;111106;1248;41149;-63
2022/03/26 01:04:31;;;;;;;18.50;7.60;;;;;0.20;98497.00;;;;111100;1248;41790;-64
2022/03/26 01:07:00;;;;;;;16.20;7.50;;;;;0.20;98498.40;;;;111054;1248;41941;-61
2022/03/26 01:09:30;;;;;;;15.50;7.30;;;;;0.20;98492.00;;;;111057;1248;41945;-64
2022/03/26 01:12:00;;;;;;;16.00;7.30;;;;;0.18;98493.20;;;;110842;1248;41149;-65
2022/03/26 01:14:30;;;;;;;20.80;8.60;;;;;0.20;98490.00;;;;111052;1248;42211;-65
2022/03/26 01:17:00;;;;;;;17.30;7.90;;;;;0.20;98487.00;;;;110849;1248;41145;-64
2022/03/26 01:19:30;;;;;;;16.40;7.00;;;;;0.20;98488.20;;;;111115;1247;41198;-62
2022/03/26 01:22:01;;;;;;;16.90;7.30;;;;;0.20;98487.40;;;;110930;1250;43049;-63
2022/03/26 01:24:31;;;;;;;13.10;6.80;;;;;0.20;98490.20;;;;111149;1249;41613;-63
2022/03/26 01:27:01;;;;;;;16.90;6.70;;;;;0.16;98492.20;;;;111124;1246;41145;-63
2022/03/26 01:29:30;;;;;;;13.30;6.50;;;;;0.10;98496.60;;;;111119;1247;41256;-63
2022/03/26 01:32:00;;;;;;;13.10;5.70;;;;;0.10;98498.40;;;;110875;1250;42062;-63
2022/03/26 01:34:30;;;;;;;;;;;;;0.10;98494.60;;;;110838;1248;42484;-62
2022/03/26 01:37:02;;;;;;;13.90;6.30;;;;;0.04;98493.80;;;;111096;1247;41335;-64
2022/03/26 01:39:32;;;;;;;14.10;6.20;;;;;0.00;98494.60;;;;111136;1247;42412;-64
2022/03/26 01:42:07;;;;;;;17.00;7.50;;;;;0.00;98493.80;;;;111085;1247;41218;-64
2022/03/26 01:44:38;;;;;;;17.60;7.60;;;;;0.00;98499.60;;;;111133;1248;41376;-65
2022/03/26 01:47:08;;;;;;;18.30;8.00;;;;;0.00;98496.00;;;;111130;1248;41245;-65
2022/03/26 01:49:38;;;;;;;18.50;7.60;;;;;-0.04;98494.20;;;;111131;1247;42038;-64
2022/03/26 01:52:10;;;;;;;20.00;9.60;;;;;-0.10;98494.40;;;;111050;1247;41748;-64
2022/03/26 01:54:41;;;;;;;17.60;8.50;;;;;-0.10;98494.40;;;;111099;1247;41445;-64
2022/03/26 01:57:11;;;;;;;19.80;9.30;;;;;-0.10;98492.00;;;;111051;1247;41657;-62
2022/03/26 01:59:43;;;;;;;18.80;8.10;;;;;-0.20;98497.00;;;;111084;1248;41259;-63
2022/03/26 02:02:13;;;;;;;17.00;8.50;;;;;-0.20;98494.00;;;;110998;1248;41773;-61
2022/03/26 02:04:43;;;;;;;22.10;9.00;;;;;-0.20;98495.60;;;;111055;1248;41126;-63
2022/03/26 02:07:13;;;;;;;18.90;8.30;;;;;-0.20;98493.40;;;;110834;1248;42016;-64
2022/03/26 02:09:43;;;;;;;15.60;7.80;;;;;-0.20;98495.20;;;;111024;1248;41615;-64
2022/03/26 02:12:23;;;;;;;15.90;7.80;;;;;-0.22;98493.60;;;;111117;1247;41149;-64
2022/03/26 02:14:55;;;;;;;15.30;6.90;;;;;-0.30;98499.00;;;;111101;1247;41622;-64
2022/03/26 02:17:26;;;;;;;14.30;6.50;;;;;-0.30;98499.00;;;;110996;1248;41449;-64
2022/03/26 02:19:58;;;;;;;16.90;6.60;;;;;-0.40;98499.40;;;;110830;1250;41331;-64
2022/03/26 02:22:28;;;;;;;15.90;7.00;;;;;-0.40;98495.40;;;;111118;1247;41499;-63
2022/03/26 02:24:58;;;;;;;16.70;6.60;;;;;-0.40;98494.80;;;;111094;1247;41936;-64
2022/03/26 02:27:30;;;;;;;13.60;6.70;;;;;-0.50;98493.00;;;;111105;1247;42408;-64
2022/03/26 02:30:02;;;;;;;14.20;6.90;;;;;-0.50;98496.80;;;;111054;1249;41138;-65
2022/03/26 02:32:33;;;;;;;19.70;9.70;;;;;-0.50;98499.20;;;;111011;1249;41256;-63
2022/03/26 02:35:04;;;;;;;;;;;;;-0.60;98492.20;;;;111038;1246;42009;-64
2022/03/26 02:37:34;;;;;;;22.70;10.00;;;;;-0.60;98493.20;;;;111071;1249;41152;-64
2022/03/26 02:40:07;;;;;;;22.30;9.70;;;;;-0.70;98496.00;;;;111067;1248;42328;-64
2022/03/26 02:42:36;;;;;;;15.90;7.50;;;;;-0.70;98496.80;;;;111068;1248;41143;-65
2022/03/26 02:45:07;;;;;;;;;;;;;-0.80;98494.20;;;;111163;1246;41184;-64
2022/03/26 02:47:38;;;;;;;16.80;7.30;;;;;-0.86;98493.80;;;;110929;1248;41262;-64
2022/03/26 02:50:09;;;;;;;17.40;7.40;;;;;-0.90;98491.40;;;;110985;1248;42569;-64
2022/03/26 02:52:39;;;;;;;;;;;;;-0.90;98496.40;;;;111105;1248;42356;-63
2022/03/26 02:55:09;;;;;;;20.00;8.80;;;;;-0.90;98492.00;;;;111124;1247;41664;-63
2022/03/26 02:57:40;;;;;;;20.10;9.00;;;;;-0.96;98496.60;;;;111105;1247;41150;-65
2022/03/26 03:00:13;;;;;;;18.40;9.30;;;;;-1.00;98502.20;;;;111059;1247;41153;-64
2022/03/26 03:02:45;;;;;;;22.30;10.30;;;;;-1.00;98499.00;;;;110941;1248;41186;-64
2022/03/26 03:05:18;;;;;;;20.20;9.60;;;;;-1.10;98494.80;;;;111063;1247;41304;-64
2022/03/26 03:07:48;;;;;;;17.40;8.00;;;;;-1.10;98496.00;;;;111112;1248;41412;-64
2022/03/26 03:10:20;;;;;;;18.00;7.90;;;;;-1.20;98497.40;;;;111046;1248;41411;-64
2022/03/26 03:12:51;;;;;;;18.40;8.90;;;;;-1.22;98501.40;;;;111147;1247;41979;-62
2022/03/26 03:15:22;;;;;;;19.80;8.20;;;;;-1.30;98502.40;;;;110857;1247;41589;-65
2022/03/26 03:17:52;;;;;;;;;;;;;-1.36;98505.00;;;;111082;1248;42480;-64
2022/03/26 03:20:23;;;;;;;16.70;7.70;;;;;-1.40;98503.40;;;;111013;1248;41251;-63
2022/03/26 03:22:53;;;;;;;16.40;7.40;;;;;-1.40;98500.20;;;;111094;1248;41735;-64
2022/03/26 03:25:29;;;;;;;17.30;8.00;;;;;-1.50;98503.80;;;;111041;1249;41611;-64
2022/03/26 03:27:59;;;;;;;19.70;8.60;;;;;-1.50;98498.60;;;;111095;1247;41186;-63
2022/03/26 03:30:29;;;;;;;19.00;8.10;;;;;-1.50;98496.20;;;;111048;1248;41953;-64
2022/03/26 03:32:59;;;;;;;16.50;7.00;;;;;-1.50;98496.40;;;;111077;1248;41254;-64
2022/03/26 03:35:29;;;;;;;13.30;7.10;;;;;-1.50;98499.60;;;;111071;1247;41594;-64
2022/03/26 03:37:59;;;;;;;14.10;7.10;;;;;-1.54;98497.20;;;;111082;1247;41929;-64
2022/03/26 03:40:30;;;;;;;16.60;7.00;;;;;-1.60;98496.00;;;;111042;1248;41139;-63
2022/03/26 03:42:59;;;;;;;13.20;5.80;;;;;-1.60;98487.80;;;;111105;1247;41531;-63
2022/03/26 03:45:34;;;;;;;17.70;6.70;;;;;-1.60;98490.00;;;;111141;1247;42567;-64
2022/03/26 03:48:05;;;;;;;16.20;7.80;;;;;-1.60;98493.80;;;;111393;1245;41151;-64
2022/03/26 03:50:35;;;;;;;23.60;8.90;;;;;-1.60;98487.40;;;;111121;1246;41140;-62
2022/03/26 03:53:05;;;;;;;18.10;8.70;;;;;-1.70;98486.80;;;;111335;1246;42013;-65
2022/03/26 03:55:35;;;;;;;18.30;8.20;;;;;-1.70;98483.40;;;;111101;1247;41496;-63
2022/03/26 03:58:05;;;;;;;17.20;7.80;;;;;-1.70;98490.80;;;;111036;1247;41133;-63
2022/03/26 04:00:35;;;;;;;18.30;8.50;;;;;-1.80;98494.60;;;;111025;1247;41680;-64
2022/03/26 04:03:05;;;;;;;13.50;6.90;;;;;-1.80;98488.40;;;;111060;1248;42370;-63
2022/03/26 04:05:35;;;;;;;15.30;7.10;;;;;-1.90;98488.40;;;;111012;1249;41145;-64
2022/03/26 04:08:06;;;;;;;15.80;7.40;;;;;-1.90;98489.20;;;;111117;1247;41605;-64
2022/03/26 04:10:36;;;;;;;15.80;6.60;;;;;-1.90;98491.40;;;;111050;1247;41738;-64
2022/03/26 04:13:06;;;;;;;19.10;8.20;;;;;-1.96;98493.60;;;;111157;1248;41634;-64
2022/03/26 04:15:35;;;;;;;15.70;7.30;;;;;-2.00;98494.80;;;;111056;1248;41245;-64
2022/03/26 04:18:06;;;;;;;17.60;7.80;;;;;-2.00;98502.40;;;;111132;1247;41210;-63
2022/03/26 04:20:36;;;;;;;14.80;7.10;;;;;-2.00;98506.40;;;;111024;1248;41168;-65
2022/03/26 04:23:06;;;;;;;15.40;6.90;;;;;-2.00;98507.80;;;;111094;1247;41936;-65
2022/03/26 04:25:35;;;;;;;15.00;6.70;;;;;-2.00;98510.60;;;;111092;1247;41255;-65
2022/03/26 04:28:05;;;;;;;14.00;6.40;;;;;-2.00;98509.80;;;;111336;1246;41725;-64
2022/03/26 04:30:35;;;;;;;15.90;6.70;;;;;-2.00;98509.60;;;;110844;1250;41143;-64
2022/03/26 04:33:05;;;;;;;14.90;7.00;;;;;-2.00;98501.40;;;;111300;1244;41137;-65
2022/03/26 04:35:35;;;;;;;17.50;8.10;;;;;-2.00;98503.40;;;;110803;1249;41145;-64
2022/03/26 04:38:05;;;;;;;20.40;8.80;;;;;-2.00;98499.20;;;;110975;1247;41417;-63
2022/03/26 04:40:34;;;;;;;17.90;8.20;;;;;-2.00;98494.80;;;;110881;1248;42370;-63
2022/03/26 04:43:04;;;;;;;18.80;8.20;;;;;-2.00;98493.20;;;;111073;1247;41246;-64
2022/03/26 04:45:33;;;;;;;20.00;8.40;;;;;-1.92;98494.20;;;;110914;1249;41258;-63
2022/03/26 04:48:03;;;;;;;17.00;8.60;;;;;-1.90;98496.20;;;;111067;1247;41151;-61
2022/03/26 04:50:33;;;;;;;15.80;8.00;;;;;-1.80;98500.00;;;;111034;1249;41289;-62
2022/03/26 04:53:03;;;;;;;18.10;7.60;;;;;-1.70;98499.80;;;;111076;1247;41261;-64
2022/03/26 04:55:32;;;;;;;17.60;8.00;;;;;-1.60;98496.80;;;;111140;1249;41158;-65
2022/03/26 04:58:02;;;;;;;16.40;7.20;;;;;-1.50;98489.20;;;;110744;1249;41491;-64
2022/03/26 05:00:31;;;;;;;17.70;7.80;;;;;-1.40;98489.00;;;;110801;1249;41379;-63
2022/03/26 05:03:01;;;;;;;18.90;7.70;;;;;-1.30;98492.00;;;;111019;1249;42425;-63
2022/03/26 05:05:31;;;;;;;21.00;8.90;;;;;-1.20;98493.60;;;;111092;1247;41254;-63
2022/03/26 05:08:00;;;;;;;20.20;9.00;;;;;-1.10;98502.00;;;;111077;1248;42454;-64
2022/03/26 05:10:30;;;;;;;22.20;10.70;;;;;-0.96;98493.80;;;;111031;1249;41135;-62
2022/03/26 05:12:59;;;;;;;25.70;11.40;;;;;-0.86;98493.20;;;;111060;1249;41942;-63
2022/03/26 05:15:29;;;;;;;23.90;11.80;;;;;-0.74;98492.00;;;;110759;1249;41147;-63
2022/03/26 05:17:58;;;;;;;26.50;10.80;;;;;-0.60;98499.20;;;;111098;1247;41612;-62
2022/03/26 05:20:28;;;;;;;21.80;10.00;;;;;-0.50;98503.20;;;;110976;1248;41176;-65
2022/03/26 05:22:57;;;;;;;20.60;9.40;;;;;-0.40;98498.60;;;;110995;1249;42388;-63
2022/03/26 05:25:26;;;;;;;18.30;9.20;;;;;-0.24;98496.20;;;;111031;1248;42118;-63
2022/03/26 05:27:55;;;;;;;19.00;8.60;;;;;-0.10;98495.20;;;;111086;1246;41129;-64
2022/03/26 05:30:24;;;;;;;19.80;8.40;;;;;0.10;98499.40;;;;111146;1246;41257;-62
2022/03/26 05:32:53;;;;;;;16.80;7.20;;;;;0.24;98500.60;;;;111114;1249;40718;-64
2022/03/26 05:35:23;;;;;;;17.10;7.70;;;;;0.40;98502.20;;;;111083;1248;41261;-63
2022/03/26 05:37:53;;;;;;;18.80;8.80;;;;;0.60;98496.40;;;;111169;1248;41137;-64
2022/03/26 05:40:23;;;;;;;24.40;11.90;;;;;0.80;98499.40;;;;111036;1247;41157;-64
2022/03/26 05:42:52;;;;;;;24.90;12.40;;;;;1.00;98492.20;;;;111069;1247;41133;-64
2022/03/26 05:45:22;;;;;;;27.20;11.60;;;;;1.10;98490.60;;;;110889;1249;42008;-64
2022/03/26 05:47:56;;;;;;;23.80;12.00;;;;;1.30;98485.40;;;;111035;1246;41426;-64
2022/03/26 05:50:26;;;;;;;24.60;11.20;;;;;1.48;98488.40;;;;111085;1249;41136;-63
2022/03/26 05:52:56;;;;;;;20.90;10.50;;;;;1.66;98491.40;;;;111004;1249;41604;-64
2022/03/26 05:55:25;;;;;;;25.40;11.70;;;;;1.80;98493.60;;;;111139;1248;41158;-62
2022/03/26 05:57:55;;;;;;;29.10;14.40;;;;;2.00;98490.20;;;;111007;1249;41262;-63
2022/03/26 06:00:24;;;;;;;32.20;16.10;;;;;2.20;98488.60;;;;110787;1249;41166;-66
2022/03/26 06:02:54;;;;;;;28.70;15.00;;;;;2.40;98489.00;;;;110800;1250;41958;-62
2022/03/26 06:05:23;;;;;;;33.30;14.30;;;;;2.60;98489.60;;;;111274;1247;41263;-62
2022/03/26 06:07:52;;;;;;;29.90;14.10;;;;;2.70;98487.40;;;;111095;1248;41188;-63
2022/03/26 06:10:21;;;;;;;22.20;10.30;;;;;2.90;98486.60;;;;111063;1249;41245;-63
2022/03/26 06:12:50;;;;;;;24.20;10.70;;;;;3.00;98486.40;;;;111084;1248;41153;-63
2022/03/26 06:15:19;;;;;;;23.40;10.70;;;;;3.10;98490.60;;;;111150;1248;41534;-62
2022/03/26 06:18:10;;;;;;;20.70;10.60;;;;;3.00;98494.00;;;;111028;1247;41151;-63
2022/03/26 06:20:42;;;;;;;20.40;8.80;;;;;3.10;98498.20;;;;111162;1246;41145;-63
2022/03/26 06:23:11;;;;;;;20.80;8.40;;;;;3.12;98506.40;;;;111084;1247;41770;-63
2022/03/26 06:25:40;;;;;;;16.40;7.70;;;;;3.24;98504.00;;;;111120;1247;41124;-63
2022/03/26 06:28:10;;;;;;;17.00;7.60;;;;;3.40;98510.40;;;;111075;1249;41264;-64
2022/03/26 06:30:39;;;;;;;19.30;8.50;;;;;3.60;98506.20;;;;111054;1249;41261;-65
2022/03/26 06:33:09;;;;;;;18.20;7.30;;;;;3.88;98508.00;;;;111036;1249;41751;-64
2022/03/26 06:35:38;;;;;;;18.00;7.50;;;;;4.10;98503.60;;;;110831;1249;41379;-65
2022/03/26 06:38:07;;;;;;;18.90;7.90;;;;;4.32;98508.00;;;;111037;1248;41159;-65
2022/03/26 06:40:38;;;;;;;19.00;8.00;;;;;4.60;98503.00;;;;110959;1249;41148;-64
2022/03/26 06:43:07;;;;;;;17.70;8.10;;;;;4.86;98502.00;;;;111109;1247;41129;-64
2022/03/26 06:45:37;;;;;;;15.70;7.50;;;;;5.00;98507.80;;;;110839;1250;41604;-64
2022/03/26 06:48:07;;;;;;;14.40;7.30;;;;;5.20;98510.20;;;;111034;1248;42473;-65
2022/03/26 06:50:36;;;;;;;14.60;7.00;;;;;5.40;98508.00;;;;111132;1247;41253;-63
2022/03/26 06:53:06;;;;;;;17.40;7.90;;;;;5.60;98508.20;;;;111024;1247;43021;-64
2022/03/26 06:55:35;;;;;;;17.10;7.70;;;;;5.80;98511.40;;;;111037;1247;41457;-65
2022/03/26 06:58:04;;;;;;;14.30;6.60;;;;;6.00;98507.20;;;;111147;1247;41762;-65
2022/03/26 07:00:34;;;;;;;15.70;7.20;;;;;6.20;98504.60;;;;111051;1247;41529;-63
2022/03/26 07:03:03;;;;;;;15.30;5.90;;;;;6.50;98507.20;;;;111095;1247;41257;-64
2022/03/26 07:05:32;;;;;;;13.60;5.90;;;;;6.82;98510.40;;;;111029;1248;41501;-65
2022/03/26 07:08:03;;;;;;;14.20;6.20;;;;;7.22;98510.80;;;;111109;1247;41138;-64
2022/03/26 07:10:32;;;;;;;14.00;6.70;;;;;7.50;98506.80;;;;111023;1248;41145;-65
2022/03/26 07:13:01;;;;;;;11.20;5.10;;;;;7.70;98507.40;;;;111028;1247;41727;-64
2022/03/26 07:15:31;;;;;;;16.00;6.30;;;;;7.80;98503.80;;;;111091;1247;41246;-64
2022/03/26 07:18:00;;;;;;;15.80;6.30;;;;;8.00;98508.60;;;;111136;1248;41124;-63
2022/03/26 07:20:30;;;;;;;12.70;6.20;;;;;8.10;98510.20;;;;111127;1247;41149;-64
2022/03/26 07:22:59;;;;;;;14.30;6.80;;;;;8.30;98507.00;;;;111123;1247;41435;-64
2022/03/26 07:25:29;;;;;;;14.90;6.90;;;;;8.40;98515.00;;;;111115;1248;41150;-66
2022/03/26 07:27:58;;;;;;;14.50;6.40;;;;;8.64;98514.60;;;;111069;1248;41179;-66
2022/03/26 07:30:27;;;;;;;13.20;5.70;;;;;8.92;98525.40;;;;111112;1248;41143;-66
2022/03/26 07:32:56;;;;;;;16.20;7.30;;;;;9.30;98523.80;;;;110572;1247;726817;-65
2022/03/26 07:35:25;;;;;;;12.90;6.00;;;;;9.50;98514.00;;;;111060;1248;41372;-63
2022/03/26 07:37:55;;;;;;;14.40;6.10;;;;;9.40;98512.20;;;;111114;1248;41149;-66
2022/03/26 07:40:25;;;;;;;12.50;5.30;;;;;9.50;98515.40;;;;111251;1246;41117;-66
2022/03/26 07:42:54;;;;;;;11.50;5.10;;;;;9.76;98519.40;;;;111113;1247;41305;-64
2022/03/26 07:45:23;;;;;;;16.00;6.50;;;;;9.88;98518.00;;;;111026;1248;41299;-63
2022/03/26 07:47:53;;;;;;;13.30;6.50;;;;;9.94;98515.60;;;;111154;1247;41151;-63
2022/03/26 07:50:23;;;;;;;15.40;6.40;;;;;10.22;98512.00;;;;111292;1247;41126;-66
2022/03/26 07:52:53;;;;;;;14.40;6.30;;;;;10.40;98510.60;;;;111093;1247;41251;-65
2022/03/26 07:55:22;;;;;;;12.70;6.10;;;;;10.70;98517.20;;;;111038;1247;41261;-65
2022/03/26 07:57:51;;;;;;;13.90;6.10;;;;;10.86;98513.60;;;;111209;1247;41260;-65
2022/03/26 08:00:21;;;;;;;15.90;6.60;;;;;11.18;98507.40;;;;111099;1247;42102;-65
2022/03/26 08:02:50;;;;;;;17.60;6.20;;;;;11.40;98503.80;;;;111185;1247;42226;-66
2022/03/26 08:05:20;;;;;;;12.90;6.00;;;;;11.46;98501.20;;;;111121;1247;41246;-65
2022/03/26 08:07:49;;;;;;;16.00;7.80;;;;;11.74;98502.80;;;;111343;1246;42434;-66
2022/03/26 08:10:18;;;;;;;13.10;6.60;;;;;12.02;98499.00;;;;110929;1247;41728;-64
2022/03/26 08:12:47;;;;;;;13.30;6.60;;;;;12.28;98495.40;;;;111205;1247;41140;-64
2022/03/26 08:15:18;;;;;;;15.10;6.40;;;;;12.64;98499.80;;;;111190;1247;41133;-65
2022/03/26 08:17:47;;;;;;;14.30;6.20;;;;;13.06;98497.00;;;;111145;1246;41170;-65
2022/03/26 08:20:16;;;;;;;14.50;7.00;;;;;13.40;98492.00;;;;111051;1250;41146;-66
2022/03/26 08:22:46;;;;;;;14.00;6.70;;;;;13.60;98487.20;;;;110768;1249;42193;-65
2022/03/26 08:26:19;;;;;;;12.80;6.60;;;;;13.70;98480.60;;;;110884;1248;41251;-64
2022/03/26 08:28:06;;;;;;;14.60;6.70;;;;;13.90;98477.00;;;;110900;1247;41273;-65
2022/03/26 08:30:36;;;;;;;14.30;6.70;;;;;14.04;98477.60;;;;111418;1247;41148;-65
2022/03/26 08:33:05;;;;;;;15.00;7.70;;;;;14.14;98482.00;;;;111063;1248;41931;-66
2022/03/26 08:35:36;;;;;;;15.60;7.60;;;;;14.10;98487.40;;;;110827;1249;41158;-66
2022/03/26 08:38:05;;;;;;;14.30;6.80;;;;;14.10;98480.60;;;;111119;1247;41622;-64
2022/03/26 08:40:35;;;;;;;17.30;8.80;;;;;14.44;98476.20;;;;111017;1249;41809;-65
2022/03/26 08:43:06;;;;;;;16.00;8.40;;;;;14.52;98468.40;;;;111031;1249;42358;-66
2022/03/26 08:45:35;;;;;;;16.80;7.50;;;;;14.60;98464.60;;;;111140;1248;41152;-67
2022/03/26 08:48:05;;;;;;;19.20;8.10;;;;;14.68;98462.40;;;;111079;1248;41579;-67
2022/03/26 08:50:35;;;;;;;15.20;7.50;;;;;14.86;98458.00;;;;111012;1249;41897;-66
2022/03/26 08:53:04;;;;;;;15.20;6.90;;;;;15.00;98459.20;;;;111015;1247;41256;-67
2022/03/26 08:55:34;;;;;;;14.40;7.00;;;;;15.20;98452.80;;;;111032;1249;41320;-68
2022/03/26 08:58:03;;;;;;;15.00;7.60;;;;;15.52;98446.80;;;;111065;1248;41353;-67
2022/03/26 09:00:34;;;;;;;15.50;7.90;;;;;15.84;98446.20;;;;110922;1249;42050;-65
2022/03/26 09:03:04;;;;;;;17.60;8.10;;;;;15.80;98448.60;;;;111101;1248;41139;-65
2022/03/26 09:05:33;;;;;;;15.00;7.80;;;;;16.14;98446.60;;;;111027;1248;42189;-65
2022/03/26 09:08:02;;;;;;;19.40;7.70;;;;;16.64;98437.40;;;;111113;1248;41393;-66
2022/03/26 09:10:32;;;;;;;14.90;7.40;;;;;17.78;98430.60;;;;111074;1247;41718;-67
2022/03/26 09:13:01;;;;;;;14.30;7.20;;;;;18.96;98420.80;;;;111067;1249;42020;-67
2022/03/26 09:15:31;;;;;;;12.40;6.20;;;;;20.50;98421.00;;;;111056;1248;42429;-69
2022/03/26 09:18:00;;;;;;;16.50;8.90;;;;;21.54;98411.20;;;;110946;1249;41151;-68
2022/03/26 09:20:29;;;;;;;15.20;7.10;;;;;21.66;98412.00;;;;111048;1249;41302;-68
2022/03/26 09:22:59;;;;;;;17.50;8.00;;;;;22.52;98409.00;;;;111031;1249;41143;-68
2022/03/26 09:25:29;;;;;;;16.00;9.00;;;;;22.76;98408.40;;;;111052;1247;41193;-64
2022/03/26 09:27:58;;;;;;;;;;;;;22.70;98410.20;;;;111075;1249;41167;-64
2022/03/26 09:30:27;;;;;;;16.50;7.70;;;;;23.08;98402.80;;;;111092;1248;42061;-68
2022/03/26 09:32:56;;;;;;;16.10;7.90;;;;;23.80;98399.40;;;;111102;1248;41138;-68
2022/03/26 09:35:26;;;;;;;14.80;8.00;;;;;23.70;98399.40;;;;111092;1249;42839;-68
2022/03/26 09:37:56;;;;;;;17.20;9.80;;;;;22.84;98399.40;;;;110877;1250;41913;-67
2022/03/26 09:40:25;;;;;;;21.70;9.30;;;;;22.76;98396.40;;;;110918;1250;41446;-67
2022/03/26 09:42:54;;;;;;;15.50;8.10;;;;;22.72;98391.20;;;;111147;1248;41126;-67
2022/03/26 09:45:24;;;;;;;19.80;8.60;;;;;22.32;98387.80;;;;110661;1250;41264;-67
2022/03/26 09:47:54;;;;;;;16.70;8.80;;;;;22.80;98388.40;;;;111015;1248;41154;-64
2022/03/26 09:50:23;;;;;;;18.60;9.50;;;;;23.00;98378.20;;;;111144;1248;41241;-67
2022/03/26 09:52:52;;;;;;;16.20;8.40;;;;;23.30;98372.20;;;;111123;1247;41152;-68
2022/03/26 09:55:21;;;;;;;16.50;9.10;;;;;23.60;98369.40;;;;111126;1248;42036;-67
2022/03/26 09:57:52;;;;;;;16.20;8.50;;;;;23.42;98364.40;;;;111157;1247;41506;-66
2022/03/26 10:00:21;;;;;;;16.00;9.40;;;;;23.52;98365.20;;;;111117;1247;42170;-64
2022/03/26 10:02:51;;;;;;;16.30;7.90;;;;;22.66;98366.20;;;;111135;1248;41927;-66
2022/03/26 10:05:20;;;;;;;16.80;8.10;;;;;22.80;98359.80;;;;111145;1248;41149;-63
2022/03/26 10:07:50;;;;;;;16.30;8.70;;;;;22.84;98360.80;;;;111105;1247;42125;-66
2022/03/26 10:10:24;;;;;;;19.60;9.10;;;;;22.24;98361.80;;;;111048;1248;41156;-68
2022/03/26 10:12:53;;;;;;;15.20;7.90;;;;;22.04;98359.60;;;;111134;1247;41142;-65
2022/03/26 10:15:23;;;;;;;14.80;8.20;;;;;22.96;98352.00;;;;111003;1249;41192;-64
2022/03/26 10:17:53;;;;;;;16.80;8.40;;;;;23.64;98354.80;;;;111038;1248;41752;-65
2022/03/26 10:20:24;;;;;;;16.50;8.70;;;;;23.44;98346.80;;;;111158;1247;41132;-65
2022/03/26 10:22:54;;;;;;;15.20;8.00;;;;;23.76;98343.60;;;;111048;1249;41144;-64
2022/03/26 10:25:23;;;;;;;14.20;7.60;;;;;23.82;98344.40;;;;111106;1248;41301;-67
2022/03/26 10:27:56;;;;;;;15.60;8.10;;;;;24.80;98337.40;;;;111074;1248;41210;-67
2022/03/26 10:33:24;;;;;;;14.30;7.50;;;;;25.50;98328.20;;;;110879;1248;42475;-71
2022/03/26 10:35:57;;;;;;;16.20;8.60;;;;;27.06;98326.60;;;;111174;1249;41966;-66
2022/03/26 10:38:34;;;;;;;13.80;6.90;;;;;28.54;98312.80;;;;111010;1248;41592;-69
2022/03/26 10:41:07;;;;;;;15.40;8.60;;;;;29.88;98307.20;;;;111136;1248;41157;-63
2022/03/26 10:43:38;;;;;;;14.90;7.30;;;;;29.52;98302.80;;;;111103;1248;41238;-73
2022/03/26 10:46:07;;;;;;;19.60;8.30;;;;;28.64;98304.80;;;;111095;1249;41163;-67
2022/03/26 10:48:37;;;;;;;14.30;7.20;;;;;29.08;98305.40;;;;111067;1248;41935;-68
2022/03/26 10:51:15;;;;;;;16.70;7.50;;;;;29.60;98301.40;;;;111109;1247;41245;-65
2022/03/26 10:53:46;;;;;;;18.90;9.40;;;;;30.62;98301.60;;;;111137;1247;41935;-69
2022/03/26 10:56:16;;;;;;;16.10;7.50;;;;;29.84;98293.80;;;;110918;1248;41432;-64
2022/03/26 10:58:45;;;;;;;15.70;8.70;;;;;29.22;98294.80;;;;111126;1248;41713;-67
2022/03/26 11:01:15;;;;;;;16.50;9.40;;;;;28.90;98283.80;;;;111090;1247;41592;-64
2022/03/26 11:03:44;;;;;;;14.70;7.70;;;;;29.06;98280.40;;;;111155;1247;41180;-64
2022/03/26 11:06:15;;;;;;;16.90;8.20;;;;;28.98;98275.80;;;;111096;1249;41443;-64
2022/03/26 11:08:44;;;;;;;;;;;;;28.44;98275.20;;;;111065;1250;41136;-64
2022/03/26 11:11:13;;;;;;;14.70;8.00;;;;;26.68;98271.20;;;;111058;1248;42533;-63
2022/03/26 11:13:45;;;;;;;14.70;6.90;;;;;26.88;98265.00;;;;111121;1247;42083;-69
2022/03/26 11:16:35;;;;;;;12.70;6.30;;;;;27.66;98257.40;;;;111064;1249;41432;-65
2022/03/26 11:19:30;;;;;;;14.30;6.80;;;;;29.60;98250.20;;;;110754;1251;41261;-64
2022/03/26 11:22:17;;;;;;;12.10;5.50;;;;;30.10;98242.80;;;;111054;1248;41123;-68
2022/03/26 11:25:08;;;;;;;12.70;5.50;;;;;30.78;98242.60;;;;110968;1248;41157;-72
2022/03/26 11:28:15;;;;;;;15.20;6.60;;;;;31.40;98239.80;;;;111065;1249;41511;-64
2022/03/26 11:31:13;;;;;;;14.30;6.80;;;;;30.14;98226.40;;;;111126;1247;41718;-67
2022/03/26 11:33:43;;;;;;;12.00;5.30;;;;;29.30;98223.60;;;;111085;1248;41156;-70
2022/03/26 11:36:17;;;;;;;10.80;4.80;;;;;29.50;98230.60;;;;110859;1247;41303;-69
2022/03/26 11:38:56;;;;;;;11.00;5.20;;;;;30.40;98227.00;;;;111121;1248;41236;-71
2022/03/26 11:41:32;;;;;;;11.50;4.90;;;;;31.56;98213.20;;;;111103;1249;41105;-72
2022/03/26 11:44:03;;;;;;;11.90;5.00;;;;;31.92;98212.40;;;;111046;1248;41169;-66
2022/03/26 11:50:41;;;;;;;10.90;4.90;;;;;32.68;98193.80;;;;110908;1248;41709;-66
2022/03/26 11:52:35;;;;;;;11.50;5.10;;;;;33.20;98186.00;;;;111014;1248;41932;-64
2022/03/26 11:55:10;;;;;;;11.90;4.60;;;;;33.60;98179.40;;;;111088;1247;41260;-65
2022/03/26 11:57:40;;;;;;;11.90;4.90;;;;;34.02;98181.20;;;;111023;1248;41215;-71
2022/03/26 12:00:21;;;;;;;10.60;4.50;;;;;33.42;98173.40;;;;111035;1247;41653;-69
2022/03/26 12:02:53;;;;;;;11.50;4.50;;;;;33.50;98173.00;;;;111048;1248;41155;-70
2022/03/26 12:08:18;;;;;;;11.30;4.00;;;;;32.70;98176.40;;;;111078;1247;41153;-68
2022/03/26 12:10:48;;;;;;;12.60;4.40;;;;;32.10;98166.00;;;;111040;1248;41517;-68
2022/03/26 12:13:21;;;;;;;10.40;4.00;;;;;31.02;98164.20;;;;111107;1248;41588;-68
2022/03/26 12:15:59;;;;;;;17.10;4.80;;;;;30.70;98159.20;;;;110935;1249;41259;-64
2022/03/26 12:18:35;;;;;;;10.50;4.10;;;;;29.52;98158.80;;;;111117;1248;41181;-64
2022/03/26 12:21:21;;;;;;;12.60;4.70;;;;;28.50;98160.00;;;;110984;1247;41141;-70
2022/03/26 12:23:52;;;;;;;10.30;4.20;;;;;27.90;98156.60;;;;111021;1250;41273;-68
2022/03/26 12:26:22;;;;;;;12.80;5.50;;;;;27.40;98158.60;;;;111139;1247;41148;-66
2022/03/26 12:28:51;;;;;;;10.20;4.40;;;;;26.98;98149.20;;;;110902;1248;41550;-68
2022/03/26 12:31:24;;;;;;;11.60;5.20;;;;;25.90;98157.80;;;;110996;1250;41778;-69